Time;durP1;ratioP1;P1;durP2;ratioP2;P2;SDS_P1;SDS_P2;PMS_P1;PMS_P2;Temp;Humidity;BMP_temperature;BMP_pressure;BME280_temperature;BME280_humidity;BME280_pressure;Samples;Min_cycle;Max_cycle;Signal;HPM_P1;HPM_P2
2023/09/17 00:01:23;;;;;;;18.15;9.75;;;;;;;;;;5091338;28;20554;-63
2023/09/17 00:03:51;;;;;;;14.32;10.35;;;;;;;;;;5087606;28;20052;-62
2023/09/17 00:06:19;;;;;;;15.82;10.70;;;;;;;;;;5085810;28;20060;-64
2023/09/17 00:08:47;;;;;;;15.63;10.85;;;;;;;;;;5068106;28;20128;-62
2023/09/17 00:11:14;;;;;;;17.15;10.70;;;;;;;;;;5087498;28;20719;-63
2023/09/17 00:13:41;;;;;;;15.02;10.57;;;;;;;;;;5067981;28;20098;-63
2023/09/17 00:16:10;;;;;;;15.02;11.32;;;;;;;;;;5085796;28;20047;-63
2023/09/17 00:18:37;;;;;;;16.55;11.32;;;;;;;;;;5092925;28;20043;-63
2023/09/17 00:21:06;;;;;;;13.52;9.98;;;;;;;;;;5084726;28;20052;-63
2023/09/17 00:23:34;;;;;;;14.95;10.40;;;;;;;;;;5089433;28;20068;-62
2023/09/17 00:26:02;;;;;;;14.48;10.45;;;;;;;;;;5088901;28;20527;-63
2023/09/17 00:28:29;;;;;;;14.00;9.65;;;;;;;;;;5092282;28;20048;-64
2023/09/17 00:30:56;;;;;;;13.18;9.82;;;;;;;;;;5099360;28;20048;-63
2023/09/17 00:33:23;;;;;;;15.52;10.68;;;;;;;;;;5097126;28;20047;-63
2023/09/17 00:35:51;;;;;;;12.73;9.48;;;;;;;;;;5087564;28;20127;-63
2023/09/17 00:38:18;;;;;;;12.63;9.63;;;;;;;;;;5101526;28;20052;-63
2023/09/17 00:40:46;;;;;;;14.40;10.35;;;;;;;;;;5080996;28;20062;-64
2023/09/17 00:43:13;;;;;;;13.80;9.18;;;;;;;;;;5099924;28;20043;-63
2023/09/17 00:45:42;;;;;;;16.67;10.05;;;;;;;;;;5094680;28;20052;-63
2023/09/17 00:48:10;;;;;;;16.52;10.60;;;;;;;;;;5101875;28;20059;-62
2023/09/17 00:50:38;;;;;;;12.80;10.10;;;;;;;;;;5099741;28;20055;-63
2023/09/17 00:53:06;;;;;;;15.90;10.68;;;;;;;;;;5098770;28;20077;-64
2023/09/17 00:55:33;;;;;;;13.60;9.77;;;;;;;;;;5089889;28;20111;-63
2023/09/17 00:58:04;;;;;;;14.93;9.68;;;;;;;;;;5088811;28;20048;-62
2023/09/17 01:00:33;;;;;;;14.25;10.27;;;;;;;;;;5086161;28;20048;-63
2023/09/17 01:03:02;;;;;;;16.15;11.30;;;;;;;;;;5090008;28;20388;-63
2023/09/17 01:05:36;;;;;;;14.45;10.73;;;;;;;;;;5088719;28;20048;-63
2023/09/17 01:08:04;;;;;;;16.50;10.57;;;;;;;;;;5087635;28;20060;-62
2023/09/17 01:10:31;;;;;;;14.20;10.27;;;;;;;;;;5076898;28;20046;-63
2023/09/17 01:12:58;;;;;;;13.50;9.75;;;;;;;;;;5099056;28;20427;-63
2023/09/17 01:15:27;;;;;;;14.07;10.20;;;;;;;;;;5090319;28;20053;-63
2023/09/17 01:17:54;;;;;;;13.27;10.00;;;;;;;;;;5090879;28;20048;-63
2023/09/17 01:20:29;;;;;;;16.05;9.73;;;;;;;;;;5073235;28;20090;-62
2023/09/17 01:22:59;;;;;;;13.52;9.98;;;;;;;;;;5085523;28;20048;-62
2023/09/17 01:25:31;;;;;;;13.07;10.18;;;;;;;;;;5078913;28;20047;-63
2023/09/17 01:28:01;;;;;;;15.07;10.18;;;;;;;;;;5086905;28;20548;-63
2023/09/17 01:30:29;;;;;;;13.82;10.68;;;;;;;;;;5085489;28;20093;-64
2023/09/17 01:32:56;;;;;;;14.43;10.77;;;;;;;;;;5088606;28;20039;-63
2023/09/17 01:35:23;;;;;;;15.10;10.85;;;;;;;;;;5087100;28;20483;-62
2023/09/17 01:37:54;;;;;;;14.93;11.02;;;;;;;;;;5089325;28;20043;-63
2023/09/17 01:40:21;;;;;;;16.45;10.55;;;;;;;;;;5100636;28;20384;-62
2023/09/17 01:42:49;;;;;;;12.90;10.48;;;;;;;;;;5085827;28;20071;-62
2023/09/17 01:45:18;;;;;;;13.93;10.90;;;;;;;;;;5068420;28;20044;-62
2023/09/17 01:47:47;;;;;;;15.35;11.30;;;;;;;;;;5088396;28;20064;-64
2023/09/17 01:50:15;;;;;;;15.82;11.50;;;;;;;;;;5087700;28;20054;-62
2023/09/17 01:52:43;;;;;;;18.08;12.30;;;;;;;;;;5085487;28;20639;-63
2023/09/17 01:55:10;;;;;;;19.20;12.85;;;;;;;;;;5089336;28;20052;-63
2023/09/17 01:57:37;;;;;;;17.30;13.18;;;;;;;;;;5084931;28;20060;-62
2023/09/17 02:00:14;;;;;;;18.60;12.73;;;;;;;;;;5084357;28;20040;-63
2023/09/17 02:02:46;;;;;;;19.08;13.25;;;;;;;;;;5086590;28;20044;-62
2023/09/17 02:05:14;;;;;;;21.73;14.97;;;;;;;;;;5073181;28;20081;-62
2023/09/17 02:07:41;;;;;;;22.65;14.85;;;;;;;;;;5090773;28;20279;-64
2023/09/17 02:10:09;;;;;;;22.60;15.75;;;;;;;;;;5085070;28;20048;-63
2023/09/17 02:12:36;;;;;;;25.92;16.30;;;;;;;;;;5087991;28;20040;-63
2023/09/17 02:15:04;;;;;;;22.23;15.18;;;;;;;;;;5084542;28;20047;-63
2023/09/17 02:17:31;;;;;;;23.08;15.98;;;;;;;;;;5085693;28;20044;-62
2023/09/17 02:20:00;;;;;;;22.95;15.35;;;;;;;;;;5090548;28;20067;-63
2023/09/17 02:22:27;;;;;;;24.60;15.68;;;;;;;;;;5086176;28;20044;-63
2023/09/17 02:24:55;;;;;;;19.65;15.00;;;;;;;;;;5086835;28;20044;-63
2023/09/17 02:27:22;;;;;;;22.30;14.05;;;;;;;;;;5090580;28;20043;-63
2023/09/17 02:29:49;;;;;;;21.38;14.68;;;;;;;;;;5085504;28;20050;-63
2023/09/17 02:32:17;;;;;;;20.98;14.88;;;;;;;;;;5088484;28;20044;-63
2023/09/17 02:34:44;;;;;;;20.58;15.30;;;;;;;;;;5087737;28;20131;-63
2023/09/17 02:37:13;;;;;;;19.27;14.23;;;;;;;;;;5089825;28;20044;-62
2023/09/17 02:39:40;;;;;;;24.40;15.40;;;;;;;;;;5089846;28;20123;-62
2023/09/17 02:42:07;;;;;;;21.77;15.40;;;;;;;;;;5084449;28;20044;-63
2023/09/17 02:44:35;;;;;;;22.83;16.08;;;;;;;;;;5087398;28;20461;-63
2023/09/17 02:47:02;;;;;;;24.90;15.95;;;;;;;;;;5085498;28;20548;-62
2023/09/17 02:49:30;;;;;;;21.17;15.43;;;;;;;;;;5085546;28;20048;-62
2023/09/17 02:51:57;;;;;;;24.60;16.88;;;;;;;;;;5086211;28;20055;-64
2023/09/17 02:54:26;;;;;;;24.40;16.33;;;;;;;;;;5090336;28;20051;-63
2023/09/17 02:56:53;;;;;;;22.45;16.10;;;;;;;;;;5087631;28;20040;-63
2023/09/17 02:59:21;;;;;;;21.98;15.90;;;;;;;;;;5079353;28;20518;-63
2023/09/17 03:01:48;;;;;;;20.40;15.02;;;;;;;;;;5086598;28;20047;-63
2023/09/17 03:04:15;;;;;;;20.98;14.68;;;;;;;;;;5086158;28;20130;-62
2023/09/17 03:06:42;;;;;;;16.33;12.90;;;;;;;;;;5085310;28;20056;-63
2023/09/17 03:09:11;;;;;;;18.52;12.65;;;;;;;;;;5087859;28;20506;-62
2023/09/17 03:11:40;;;;;;;20.08;13.13;;;;;;;;;;5085930;28;20102;-63
2023/09/17 03:14:07;;;;;;;16.15;12.85;;;;;;;;;;5086001;28;20069;-63
2023/09/17 03:16:35;;;;;;;20.88;13.38;;;;;;;;;;5071539;28;20070;-63
2023/09/17 03:19:02;;;;;;;22.10;14.32;;;;;;;;;;5088907;28;20431;-62
2023/09/17 03:21:29;;;;;;;19.13;14.48;;;;;;;;;;5078365;28;20048;-63
2023/09/17 03:23:57;;;;;;;20.73;14.82;;;;;;;;;;5087188;28;20051;-62
2023/09/17 03:26:24;;;;;;;21.95;15.18;;;;;;;;;;5081660;28;20051;-63
2023/09/17 03:28:53;;;;;;;22.45;14.93;;;;;;;;;;5089245;28;20139;-62
2023/09/17 03:31:20;;;;;;;20.67;15.60;;;;;;;;;;5085616;28;21182;-62
2023/09/17 03:33:47;;;;;;;22.10;16.08;;;;;;;;;;5082912;28;20049;-63
2023/09/17 03:36:14;;;;;;;22.42;15.95;;;;;;;;;;5087968;28;20498;-63
2023/09/17 03:38:41;;;;;;;20.35;15.10;;;;;;;;;;5084627;28;20052;-63
2023/09/17 03:41:09;;;;;;;24.33;16.90;;;;;;;;;;5083946;28;20048;-62
2023/09/17 03:43:36;;;;;;;22.48;16.20;;;;;;;;;;5088291;28;20415;-62
2023/09/17 03:46:05;;;;;;;22.52;16.83;;;;;;;;;;5087809;28;20047;-63
2023/09/17 03:48:33;;;;;;;26.40;17.00;;;;;;;;;;5088821;28;20139;-63
2023/09/17 03:51:00;;;;;;;24.58;16.65;;;;;;;;;;5081746;28;20048;-62
2023/09/17 03:53:28;;;;;;;24.17;16.60;;;;;;;;;;5092149;28;20044;-63
2023/09/17 03:55:55;;;;;;;31.35;16.80;;;;;;;;;;5082724;28;20051;-63
2023/09/17 03:58:22;;;;;;;24.10;17.45;;;;;;;;;;5093690;28;20036;-63
2023/09/17 04:00:50;;;;;;;30.15;18.15;;;;;;;;;;5086772;28;20674;-64
2023/09/17 04:03:19;;;;;;;27.38;18.33;;;;;;;;;;5082696;28;20044;-63
2023/09/17 04:05:48;;;;;;;22.90;16.77;;;;;;;;;;5080556;28;20044;-63
2023/09/17 04:08:15;;;;;;;24.60;17.58;;;;;;;;;;5089730;28;20122;-62
2023/09/17 04:10:43;;;;;;;32.05;19.42;;;;;;;;;;5087827;28;20048;-63
2023/09/17 04:13:12;;;;;;;27.67;17.75;;;;;;;;;;5092372;28;20483;-62
2023/09/17 04:15:39;;;;;;;25.20;17.80;;;;;;;;;;5094568;28;20104;-62
2023/09/17 04:18:07;;;;;;;26.25;17.98;;;;;;;;;;5092741;28;20071;-63
2023/09/17 04:20:35;;;;;;;29.33;18.27;;;;;;;;;;5091982;28;20040;-63
2023/09/17 04:23:03;;;;;;;24.88;17.85;;;;;;;;;;5091092;28;20054;-62
2023/09/17 04:25:32;;;;;;;26.67;17.08;;;;;;;;;;5096744;28;20051;-63
2023/09/17 04:27:59;;;;;;;23.45;17.48;;;;;;;;;;5092005;28;20052;-63
2023/09/17 04:30:27;;;;;;;30.55;18.45;;;;;;;;;;5081684;28;20051;-63
2023/09/17 04:32:56;;;;;;;26.80;18.50;;;;;;;;;;5088892;28;20044;-62
2023/09/17 04:35:23;;;;;;;25.33;17.45;;;;;;;;;;5088722;28;20132;-63
2023/09/17 04:37:52;;;;;;;28.90;17.73;;;;;;;;;;5089096;28;20048;-62
2023/09/17 04:40:25;;;;;;;29.27;17.50;;;;;;;;;;5093706;28;20116;-62
2023/09/17 04:42:53;;;;;;;24.63;17.90;;;;;;;;;;5096400;28;20575;-63
2023/09/17 04:45:33;;;;;;;28.92;18.35;;;;;;;;;;5092597;28;20119;-62
2023/09/17 04:48:00;;;;;;;25.50;17.38;;;;;;;;;;5087603;28;20048;-63
2023/09/17 04:50:28;;;;;;;27.63;17.88;;;;;;;;;;5089579;28;20055;-63
2023/09/17 04:52:57;;;;;;;27.20;17.35;;;;;;;;;;5082051;28;20457;-63
2023/09/17 04:55:24;;;;;;;25.83;17.25;;;;;;;;;;5090215;28;20098;-63
2023/09/17 04:57:52;;;;;;;27.92;18.05;;;;;;;;;;5083751;28;20508;-63
2023/09/17 05:00:20;;;;;;;25.13;16.60;;;;;;;;;;5086597;28;20052;-63
2023/09/17 05:02:48;;;;;;;29.08;17.85;;;;;;;;;;5090697;28;20044;-63
2023/09/17 05:05:18;;;;;;;24.35;17.05;;;;;;;;;;5086410;28;20088;-63
2023/09/17 05:07:47;;;;;;;27.92;17.35;;;;;;;;;;5083497;28;20052;-62
2023/09/17 05:10:16;;;;;;;31.08;18.05;;;;;;;;;;5088118;28;20048;-62
2023/09/17 05:12:44;;;;;;;24.92;18.10;;;;;;;;;;5076985;28;20052;-62
2023/09/17 05:15:11;;;;;;;25.08;16.90;;;;;;;;;;5083362;28;20040;-62
2023/09/17 05:17:39;;;;;;;27.05;18.17;;;;;;;;;;5083887;28;20137;-63
2023/09/17 05:20:07;;;;;;;26.50;17.25;;;;;;;;;;5093330;28;20044;-63
2023/09/17 05:22:34;;;;;;;27.20;18.27;;;;;;;;;;5089059;28;20048;-62
2023/09/17 05:25:03;;;;;;;33.17;18.77;;;;;;;;;;5084000;28;20044;-62
2023/09/17 05:27:32;;;;;;;28.23;18.30;;;;;;;;;;5085365;28;20040;-63
2023/09/17 05:30:01;;;;;;;25.60;18.38;;;;;;;;;;5091982;28;20078;-63
2023/09/17 05:32:28;;;;;;;30.55;19.27;;;;;;;;;;5093158;28;20044;-63
2023/09/17 05:34:55;;;;;;;29.02;19.15;;;;;;;;;;5085732;28;20048;-62
2023/09/17 05:37:22;;;;;;;28.58;19.27;;;;;;;;;;5090193;28;20052;-64
2023/09/17 05:39:50;;;;;;;29.42;19.73;;;;;;;;;;5087753;28;20406;-63
2023/09/17 05:42:17;;;;;;;27.38;19.95;;;;;;;;;;5072349;28;20048;-63
2023/09/17 05:44:46;;;;;;;30.42;20.17;;;;;;;;;;5091010;28;20063;-63
2023/09/17 05:47:13;;;;;;;30.75;21.63;;;;;;;;;;5088488;28;20127;-62
2023/09/17 05:49:40;;;;;;;34.10;22.55;;;;;;;;;;5080991;28;20060;-63
2023/09/17 05:52:07;;;;;;;31.17;21.52;;;;;;;;;;5067732;28;20048;-63
2023/09/17 05:54:35;;;;;;;34.75;22.50;;;;;;;;;;5088475;28;20068;-63
2023/09/17 05:57:02;;;;;;;39.00;23.88;;;;;;;;;;5086872;28;20047;-63
2023/09/17 05:59:29;;;;;;;32.70;22.52;;;;;;;;;;5084307;28;20380;-63
2023/09/17 06:01:58;;;;;;;35.85;23.85;;;;;;;;;;5078697;28;20045;-63
2023/09/17 06:04:26;;;;;;;34.85;24.25;;;;;;;;;;5078769;28;20076;-63
2023/09/17 06:06:53;;;;;;;32.22;21.73;;;;;;;;;;5081820;28;20044;-63
2023/09/17 06:09:20;;;;;;;32.10;21.98;;;;;;;;;;5078013;28;20048;-63
2023/09/17 06:11:48;;;;;;;32.63;22.15;;;;;;;;;;5063616;28;20520;-63
2023/09/17 06:14:15;;;;;;;29.63;19.88;;;;;;;;;;5086234;28;20061;-63
2023/09/17 06:16:42;;;;;;;33.10;20.73;;;;;;;;;;5089739;28;20407;-64
2023/09/17 06:19:11;;;;;;;31.55;20.83;;;;;;;;;;5083107;28;20052;-63
2023/09/17 06:21:38;;;;;;;28.65;19.58;;;;;;;;;;5088221;28;20047;-63
2023/09/17 06:24:06;;;;;;;29.38;19.63;;;;;;;;;;5086305;28;20067;-63
2023/09/17 06:26:33;;;;;;;29.45;19.45;;;;;;;;;;5088797;28;20066;-62
2023/09/17 06:29:00;;;;;;;29.15;19.52;;;;;;;;;;5088392;28;20048;-62
2023/09/17 06:31:27;;;;;;;31.40;19.33;;;;;;;;;;5087557;28;20063;-63
2023/09/17 06:33:55;;;;;;;32.15;19.83;;;;;;;;;;5075701;28;20051;-64
2023/09/17 06:36:24;;;;;;;30.20;18.75;;;;;;;;;;5084091;28;20044;-63
2023/09/17 06:38:51;;;;;;;29.08;19.48;;;;;;;;;;5082968;28;20044;-63
2023/09/17 06:41:19;;;;;;;30.60;19.35;;;;;;;;;;5083747;28;20505;-62
2023/09/17 06:43:47;;;;;;;27.25;18.92;;;;;;;;;;5082856;28;20056;-63
2023/09/17 06:46:14;;;;;;;27.23;19.60;;;;;;;;;;5080229;28;20409;-63
2023/09/17 06:48:41;;;;;;;29.13;20.40;;;;;;;;;;5088268;28;20138;-63
2023/09/17 06:51:09;;;;;;;26.35;18.35;;;;;;;;;;5082291;28;20091;-62
2023/09/17 06:53:37;;;;;;;32.63;19.27;;;;;;;;;;5090974;28;20050;-63
2023/09/17 06:56:05;;;;;;;30.77;19.30;;;;;;;;;;5082075;28;20406;-65
2023/09/17 06:58:32;;;;;;;27.45;18.65;;;;;;;;;;5091385;28;20510;-62
2023/09/17 07:01:00;;;;;;;24.20;17.33;;;;;;;;;;5097005;28;20058;-64
2023/09/17 07:03:27;;;;;;;28.48;17.85;;;;;;;;;;5091682;28;20102;-63
2023/09/17 07:05:54;;;;;;;26.52;18.75;;;;;;;;;;5085543;28;20246;-64
2023/09/17 07:08:21;;;;;;;25.02;17.48;;;;;;;;;;5070413;28;20514;-63
2023/09/17 07:10:50;;;;;;;26.17;17.60;;;;;;;;;;5086883;28;20048;-62
2023/09/17 07:13:17;;;;;;;23.92;17.45;;;;;;;;;;5085651;28;20063;-63
2023/09/17 07:15:45;;;;;;;31.50;18.30;;;;;;;;;;5101630;28;20056;-63
2023/09/17 07:18:13;;;;;;;27.77;18.20;;;;;;;;;;5087069;28;20043;-63
2023/09/17 07:20:40;;;;;;;29.27;17.67;;;;;;;;;;5073944;28;20522;-62
2023/09/17 07:23:07;;;;;;;29.88;17.30;;;;;;;;;;5065360;28;20048;-63
2023/09/17 07:25:35;;;;;;;26.73;17.60;;;;;;;;;;5092356;28;20063;-64
2023/09/17 07:28:07;;;;;;;30.70;19.33;;;;;;;;;;5088854;28;20063;-63
2023/09/17 07:30:34;;;;;;;29.52;19.25;;;;;;;;;;5095962;28;20043;-62
2023/09/17 07:33:02;;;;;;;30.25;18.55;;;;;;;;;;5092436;28;20044;-63
2023/09/17 07:35:29;;;;;;;27.73;19.02;;;;;;;;;;5070715;28;20052;-63
2023/09/17 07:37:56;;;;;;;27.98;18.70;;;;;;;;;;5081831;28;20044;-64
2023/09/17 07:40:23;;;;;;;27.25;18.20;;;;;;;;;;5079027;28;20052;-63
2023/09/17 07:42:51;;;;;;;28.67;19.02;;;;;;;;;;5084161;28;20118;-63
2023/09/17 07:45:19;;;;;;;28.17;18.63;;;;;;;;;;5075215;28;20045;-63
2023/09/17 07:47:47;;;;;;;29.20;18.30;;;;;;;;;;5096560;28;20064;-63
2023/09/17 07:50:15;;;;;;;30.95;17.88;;;;;;;;;;5100029;28;20052;-63
2023/09/17 07:52:43;;;;;;;27.83;17.83;;;;;;;;;;5094377;28;20453;-63
2023/09/17 07:55:10;;;;;;;26.60;17.90;;;;;;;;;;5074863;28;20603;-63
2023/09/17 07:57:37;;;;;;;28.30;18.00;;;;;;;;;;5079032;28;20501;-65
2023/09/17 08:00:06;;;;;;;26.08;17.42;;;;;;;;;;5090218;28;20055;-63
2023/09/17 08:02:34;;;;;;;25.42;16.45;;;;;;;;;;5087646;28;20059;-63
2023/09/17 08:05:01;;;;;;;25.35;16.52;;;;;;;;;;5068327;28;20056;-64
2023/09/17 08:07:29;;;;;;;22.67;16.40;;;;;;;;;;5089365;28;20048;-63
2023/09/17 08:09:56;;;;;;;24.85;16.42;;;;;;;;;;5083300;28;20102;-63
2023/09/17 08:12:24;;;;;;;24.33;15.93;;;;;;;;;;5090334;28;20080;-64
2023/09/17 08:14:53;;;;;;;23.65;15.85;;;;;;;;;;5091027;28;20044;-63
2023/09/17 08:17:20;;;;;;;21.33;15.98;;;;;;;;;;5081846;28;20051;-63
2023/09/17 08:19:48;;;;;;;22.45;15.43;;;;;;;;;;5073081;28;20056;-63
2023/09/17 08:22:16;;;;;;;21.55;14.77;;;;;;;;;;5092766;28;20044;-63
2023/09/17 08:24:44;;;;;;;19.80;13.90;;;;;;;;;;5086518;28;20109;-65
2023/09/17 08:27:11;;;;;;;27.35;15.32;;;;;;;;;;5096569;28;20055;-63
2023/09/17 08:29:38;;;;;;;20.50;14.10;;;;;;;;;;5090436;28;20044;-64
2023/09/17 08:32:07;;;;;;;23.77;14.48;;;;;;;;;;5097463;28;20048;-63
2023/09/17 08:34:34;;;;;;;18.95;13.75;;;;;;;;;;5092192;28;20072;-64
2023/09/17 08:37:04;;;;;;;21.10;14.98;;;;;;;;;;5090288;28;20567;-63
2023/09/17 08:39:31;;;;;;;22.83;13.85;;;;;;;;;;5097392;28;20052;-64
2023/09/17 08:42:00;;;;;;;21.20;14.90;;;;;;;;;;5067430;28;20044;-63
2023/09/17 08:44:29;;;;;;;23.40;14.70;;;;;;;;;;5083711;28;20044;-63
2023/09/17 08:46:56;;;;;;;18.75;14.05;;;;;;;;;;5079151;28;20043;-63
2023/09/17 08:49:24;;;;;;;19.50;14.00;;;;;;;;;;5081435;28;20438;-64
2023/09/17 08:51:52;;;;;;;20.17;14.00;;;;;;;;;;5076823;28;20056;-65
2023/09/17 08:54:23;;;;;;;18.23;14.65;;;;;;;;;;5086109;28;20052;-63
2023/09/17 08:56:50;;;;;;;20.20;14.63;;;;;;;;;;5081583;28;20475;-64
2023/09/17 08:59:28;;;;;;;20.40;14.40;;;;;;;;;;5080197;28;20165;-64
2023/09/17 09:01:56;;;;;;;19.98;14.38;;;;;;;;;;5084919;28;20415;-64
2023/09/17 09:04:24;;;;;;;21.48;14.63;;;;;;;;;;5078296;28;20041;-64
2023/09/17 09:06:52;;;;;;;22.92;14.52;;;;;;;;;;5079385;28;20056;-63
2023/09/17 09:09:23;;;;;;;21.13;14.43;;;;;;;;;;5084118;28;20074;-63
2023/09/17 09:11:51;;;;;;;22.33;14.95;;;;;;;;;;5078054;28;20055;-64
2023/09/17 09:14:18;;;;;;;22.77;15.02;;;;;;;;;;5078128;28;20054;-64
2023/09/17 09:16:45;;;;;;;22.17;14.60;;;;;;;;;;5084714;28;20059;-64
2023/09/17 09:19:13;;;;;;;23.08;14.48;;;;;;;;;;5081279;28;20137;-64
2023/09/17 09:21:40;;;;;;;20.98;13.90;;;;;;;;;;5089419;28;20058;-63
2023/09/17 09:24:07;;;;;;;21.67;14.82;;;;;;;;;;5086880;28;20040;-63
2023/09/17 09:26:37;;;;;;;19.98;15.07;;;;;;;;;;5087312;28;20062;-64
2023/09/17 09:29:04;;;;;;;21.17;15.20;;;;;;;;;;5088683;28;20677;-62
2023/09/17 09:31:32;;;;;;;22.90;15.68;;;;;;;;;;5091392;28;20518;-63
2023/09/17 09:34:00;;;;;;;23.85;15.80;;;;;;;;;;5066158;28;20048;-63
2023/09/17 09:36:28;;;;;;;22.55;15.02;;;;;;;;;;5084015;28;20040;-63
2023/09/17 09:38:56;;;;;;;22.75;15.73;;;;;;;;;;5083766;28;20040;-63
2023/09/17 09:41:25;;;;;;;25.27;16.67;;;;;;;;;;5081221;28;20052;-65
2023/09/17 09:43:56;;;;;;;20.58;15.43;;;;;;;;;;5079903;28;20495;-63
2023/09/17 09:46:24;;;;;;;24.33;16.40;;;;;;;;;;5085755;28;20048;-64
2023/09/17 09:48:51;;;;;;;27.63;16.10;;;;;;;;;;5082207;28;20137;-63
2023/09/17 09:51:21;;;;;;;24.95;16.13;;;;;;;;;;5084795;28;20083;-63
2023/09/17 09:53:49;;;;;;;24.95;16.23;;;;;;;;;;5084622;28;20429;-63
2023/09/17 09:56:16;;;;;;;22.40;14.77;;;;;;;;;;5081516;28;20479;-64
2023/09/17 09:58:45;;;;;;;18.48;13.25;;;;;;;;;;5079557;28;20052;-63
2023/09/17 10:01:16;;;;;;;18.60;12.43;;;;;;;;;;5084425;28;20053;-64
2023/09/17 10:03:43;;;;;;;16.67;11.98;;;;;;;;;;5076041;28;20062;-64
2023/09/17 10:06:11;;;;;;;17.00;12.27;;;;;;;;;;5064121;28;20048;-66
2023/09/17 10:08:38;;;;;;;12.93;9.65;;;;;;;;;;5057458;28;20052;-65
2023/09/17 10:11:06;;;;;;;11.27;8.63;;;;;;;;;;5081160;28;20127;-63
2023/09/17 10:13:33;;;;;;;12.57;9.07;;;;;;;;;;5089086;28;20047;-65
2023/09/17 10:16:02;;;;;;;11.05;8.35;;;;;;;;;;5086323;28;20498;-64
2023/09/17 10:18:32;;;;;;;17.80;8.45;;;;;;;;;;5080766;28;20067;-64
2023/09/17 10:21:00;;;;;;;13.27;9.55;;;;;;;;;;5089979;28;20048;-64
2023/09/17 10:23:28;;;;;;;15.02;11.25;;;;;;;;;;5089039;28;20052;-64
2023/09/17 10:25:58;;;;;;;15.48;11.20;;;;;;;;;;5089921;28;20487;-64
2023/09/17 10:28:25;;;;;;;18.02;12.88;;;;;;;;;;5090964;28;20044;-64
2023/09/17 10:30:54;;;;;;;18.67;13.30;;;;;;;;;;5091332;28;20086;-64
2023/09/17 10:33:23;;;;;;;24.33;13.77;;;;;;;;;;5093592;28;20505;-65
2023/09/17 10:35:52;;;;;;;20.88;14.40;;;;;;;;;;5089547;28;20413;-65
2023/09/17 10:38:20;;;;;;;26.20;14.10;;;;;;;;;;5093588;28;20044;-64
2023/09/17 10:40:47;;;;;;;20.08;13.77;;;;;;;;;;5084882;28;20068;-65
2023/09/17 10:43:15;;;;;;;20.48;12.98;;;;;;;;;;5085019;28;20050;-65
2023/09/17 10:45:44;;;;;;;14.30;9.88;;;;;;;;;;5085399;28;20487;-64
2023/09/17 10:48:12;;;;;;;13.10;9.35;;;;;;;;;;5068881;28;20122;-64
2023/09/17 10:50:40;;;;;;;11.88;8.88;;;;;;;;;;5085366;28;20550;-64
2023/09/17 10:53:08;;;;;;;14.68;8.45;;;;;;;;;;5095800;28;20056;-64
2023/09/17 10:55:38;;;;;;;10.90;7.32;;;;;;;;;;5079679;28;20047;-65
2023/09/17 10:58:08;;;;;;;14.85;8.10;;;;;;;;;;5087590;28;20046;-65
2023/09/17 11:00:37;;;;;;;11.95;7.65;;;;;;;;;;5087304;28;20106;-66
2023/09/17 11:03:05;;;;;;;12.57;8.85;;;;;;;;;;5092061;28;20094;-64
2023/09/17 11:05:33;;;;;;;13.80;9.45;;;;;;;;;;5080597;28;20043;-64
2023/09/17 11:08:02;;;;;;;16.40;9.73;;;;;;;;;;5084903;28;20056;-65
2023/09/17 11:10:31;;;;;;;16.45;10.20;;;;;;;;;;5087468;28;20464;-65
2023/09/17 11:12:59;;;;;;;12.85;9.35;;;;;;;;;;5088110;28;20059;-65
2023/09/17 11:15:26;;;;;;;13.00;9.27;;;;;;;;;;5088311;28;20040;-65
2023/09/17 11:17:59;;;;;;;13.60;9.30;;;;;;;;;;5088909;28;20055;-64
2023/09/17 11:20:26;;;;;;;14.73;10.05;;;;;;;;;;5088372;28;20041;-64
2023/09/17 11:22:54;;;;;;;14.00;9.52;;;;;;;;;;5092009;28;20052;-65
2023/09/17 11:25:35;;;;;;;13.25;9.70;;;;;;;;;;5097438;28;20530;-64
2023/09/17 11:28:10;;;;;;;16.30;10.70;;;;;;;;;;5093099;28;20063;-64
2023/09/17 11:30:52;;;;;;;15.05;10.27;;;;;;;;;;5075882;28;20055;-64
2023/09/17 11:33:19;;;;;;;14.02;9.98;;;;;;;;;;5070733;28;20044;-65
2023/09/17 11:35:47;;;;;;;13.05;10.23;;;;;;;;;;5073905;28;20056;-64
2023/09/17 11:38:14;;;;;;;15.85;10.10;;;;;;;;;;5089690;28;20044;-65
2023/09/17 11:40:43;;;;;;;12.10;8.88;;;;;;;;;;5087675;28;20048;-64
2023/09/17 11:43:10;;;;;;;14.70;9.65;;;;;;;;;;5083204;28;20056;-64
2023/09/17 11:45:39;;;;;;;14.85;9.30;;;;;;;;;;5056827;28;20056;-65
2023/09/17 11:48:08;;;;;;;12.40;9.85;;;;;;;;;;5092319;28;20040;-65
2023/09/17 11:50:35;;;;;;;12.98;9.55;;;;;;;;;;5083935;28;20487;-65
2023/09/17 11:53:06;;;;;;;13.98;10.15;;;;;;;;;;5100771;28;20047;-64
2023/09/17 11:55:34;;;;;;;13.85;9.23;;;;;;;;;;5077768;28;20193;-64
2023/09/17 11:58:16;;;;;;;14.43;9.23;;;;;;;;;;5090724;28;20044;-64
2023/09/17 12:00:43;;;;;;;11.63;8.75;;;;;;;;;;5084502;28;20048;-64
2023/09/17 12:03:11;;;;;;;11.82;9.02;;;;;;;;;;5090423;28;20044;-64
2023/09/17 12:05:39;;;;;;;11.50;7.80;;;;;;;;;;5086861;28;20407;-64
2023/09/17 12:08:07;;;;;;;9.82;8.10;;;;;;;;;;5081346;28;20044;-66
2023/09/17 12:10:38;;;;;;;12.95;8.75;;;;;;;;;;5085043;28;20059;-65
2023/09/17 12:13:05;;;;;;;12.43;8.10;;;;;;;;;;5071499;28;20056;-65
2023/09/17 12:15:34;;;;;;;13.40;8.45;;;;;;;;;;5091047;28;20475;-65
2023/09/17 12:18:01;;;;;;;12.18;7.80;;;;;;;;;;5080152;28;20089;-64
2023/09/17 12:20:56;;;;;;;14.63;8.85;;;;;;;;;;5085222;28;20036;-64
2023/09/17 12:23:37;;;;;;;13.30;9.23;;;;;;;;;;5083334;28;20131;-65
2023/09/17 12:26:04;;;;;;;14.70;9.23;;;;;;;;;;5083633;28;20432;-64
2023/09/17 12:28:31;;;;;;;11.60;8.30;;;;;;;;;;5090786;28;20116;-64
2023/09/17 12:31:01;;;;;;;12.93;8.75;;;;;;;;;;5089194;28;20048;-66
2023/09/17 12:33:29;;;;;;;14.98;9.55;;;;;;;;;;5088735;28;20105;-65
2023/09/17 12:35:56;;;;;;;13.98;8.75;;;;;;;;;;5064232;28;20052;-65
2023/09/17 12:38:24;;;;;;;14.60;9.60;;;;;;;;;;5096019;28;20051;-64
2023/09/17 12:40:53;;;;;;;12.45;8.95;;;;;;;;;;5093610;28;20045;-64
2023/09/17 12:43:20;;;;;;;13.02;8.82;;;;;;;;;;5086892;28;20056;-65
2023/09/17 12:45:47;;;;;;;13.57;8.98;;;;;;;;;;5087606;28;20048;-64
2023/09/17 12:48:18;;;;;;;11.82;9.07;;;;;;;;;;5068990;28;20070;-64
2023/09/17 12:50:45;;;;;;;13.75;9.15;;;;;;;;;;5091860;28;20056;-64
2023/09/17 12:53:13;;;;;;;12.02;9.75;;;;;;;;;;5065874;28;20114;-64
2023/09/17 12:55:40;;;;;;;13.95;9.48;;;;;;;;;;5069417;28;20048;-66
2023/09/17 12:58:08;;;;;;;16.45;9.02;;;;;;;;;;5063864;28;20838;-64
2023/09/17 13:00:35;;;;;;;14.63;9.93;;;;;;;;;;5064842;28;20480;-66
2023/09/17 13:03:09;;;;;;;11.88;9.07;;;;;;;;;;5068607;28;20067;-64
2023/09/17 13:05:38;;;;;;;11.77;9.10;;;;;;;;;;5065794;28;20044;-64
2023/09/17 13:08:05;;;;;;;11.82;8.73;;;;;;;;;;5066139;28;20064;-64
2023/09/17 13:10:33;;;;;;;12.27;9.15;;;;;;;;;;5065799;28;20243;-64
2023/09/17 13:13:04;;;;;;;16.25;10.07;;;;;;;;;;5059777;28;20059;-64
2023/09/17 13:15:31;;;;;;;15.30;10.30;;;;;;;;;;5057082;28;20483;-65
2023/09/17 13:17:59;;;;;;;14.98;10.73;;;;;;;;;;5066719;28;20079;-65
2023/09/17 13:20:27;;;;;;;13.50;8.68;;;;;;;;;;5068658;28;20536;-65
2023/09/17 13:22:55;;;;;;;13.00;7.88;;;;;;;;;;5060844;28;20049;-65
2023/09/17 13:25:23;;;;;;;10.02;7.30;;;;;;;;;;5063252;28;20514;-64
2023/09/17 13:27:50;;;;;;;11.90;7.72;;;;;;;;;;5071149;28;20531;-66
2023/09/17 13:30:17;;;;;;;11.27;8.02;;;;;;;;;;5059654;28;20045;-65
2023/09/17 13:32:45;;;;;;;11.50;7.60;;;;;;;;;;5063985;28;20110;-65
2023/09/17 13:35:13;;;;;;;11.23;7.70;;;;;;;;;;5068370;28;20048;-64
2023/09/17 13:37:40;;;;;;;10.40;7.20;;;;;;;;;;5068009;28;20052;-65
2023/09/17 13:40:10;;;;;;;10.38;7.78;;;;;;;;;;5068385;28;20045;-64
2023/09/17 13:42:37;;;;;;;9.63;7.78;;;;;;;;;;5063945;28;20049;-64
2023/09/17 13:45:04;;;;;;;12.52;8.30;;;;;;;;;;5070448;28;20051;-64
2023/09/17 13:47:32;;;;;;;10.27;7.80;;;;;;;;;;5059873;28;20055;-65
2023/09/17 13:50:00;;;;;;;9.60;7.72;;;;;;;;;;5065807;28;20119;-64
2023/09/17 13:52:27;;;;;;;12.77;7.88;;;;;;;;;;5080373;28;20051;-64
2023/09/17 13:54:54;;;;;;;13.52;8.60;;;;;;;;;;5087561;28;20054;-65
2023/09/17 13:57:24;;;;;;;12.68;8.50;;;;;;;;;;5089569;28;20071;-64
2023/09/17 13:59:52;;;;;;;11.30;8.57;;;;;;;;;;5080177;28;20056;-63
2023/09/17 14:02:19;;;;;;;11.00;8.25;;;;;;;;;;5080160;28;20052;-64
2023/09/17 14:04:46;;;;;;;13.55;9.50;;;;;;;;;;5085108;28;20052;-63
2023/09/17 14:07:13;;;;;;;13.15;9.48;;;;;;;;;;5083646;28;20044;-64
2023/09/17 14:09:41;;;;;;;12.75;9.63;;;;;;;;;;5085688;28;20051;-64
2023/09/17 14:12:08;;;;;;;14.25;9.70;;;;;;;;;;5077058;28;20047;-64
2023/09/17 14:14:37;;;;;;;13.98;9.90;;;;;;;;;;5065853;28;20044;-64
2023/09/17 14:17:05;;;;;;;15.10;9.82;;;;;;;;;;5082946;28;20051;-63
2023/09/17 14:19:32;;;;;;;15.98;10.48;;;;;;;;;;5091563;28;20044;-63
2023/09/17 14:21:59;;;;;;;15.80;10.60;;;;;;;;;;5087486;28;20054;-65
2023/09/17 14:24:26;;;;;;;13.77;10.90;;;;;;;;;;5083346;28;20040;-63
2023/09/17 14:26:54;;;;;;;17.13;12.23;;;;;;;;;;5082922;28;20052;-64